Time;durP1;ratioP1;P1;durP2;ratioP2;P2;SDS_P1;SDS_P2;PMS_P1;PMS_P2;Temp;Humidity;BMP_temperature;BMP_pressure;BME280_temperature;BME280_humidity;BME280_pressure;Samples;Min_cycle;Max_cycle;Signal;HPM_P1;HPM_P2
2023/06/09 00:00:17;;;;;;;5.55;3.40;;;17.90;99.90;;;;;;5114231;28;20098;-83
2023/06/09 00:02:50;;;;;;;7.28;3.42;;;18.00;99.90;;;;;;5112815;28;20176;-83
2023/06/09 00:05:18;;;;;;;4.95;3.58;;;18.00;99.90;;;;;;5114333;28;20036;-82
2023/06/09 00:07:47;;;;;;;5.70;3.33;;;17.90;99.90;;;;;;5112415;28;20472;-83
2023/06/09 00:10:14;;;;;;;6.03;3.35;;;18.00;99.90;;;;;;5113126;28;20032;-83
2023/06/09 00:12:40;;;;;;;4.22;3.22;;;17.90;99.90;;;;;;5112527;28;20030;-82
2023/06/09 00:15:08;;;;;;;4.55;3.28;;;17.90;99.90;;;;;;5112776;28;20020;-82
2023/06/09 00:17:34;;;;;;;4.88;3.15;;;17.90;99.90;;;;;;5113482;28;20024;-82
2023/06/09 00:20:02;;;;;;;4.45;3.38;;;17.90;99.90;;;;;;5113117;28;20031;-83
2023/06/09 00:22:28;;;;;;;5.28;3.88;;;17.90;99.90;;;;;;5113041;28;20028;-82
2023/06/09 00:24:54;;;;;;;6.38;3.60;;;17.80;99.90;;;;;;5112639;28;20032;-82
2023/06/09 00:27:19;;;;;;;6.50;3.42;;;17.70;99.90;;;;;;5113152;28;20127;-83
2023/06/09 00:29:45;;;;;;;5.47;3.40;;;17.70;99.90;;;;;;5113620;28;20019;-82
2023/06/09 00:32:11;;;;;;;4.07;3.05;;;17.70;99.90;;;;;;5113103;28;20027;-82
2023/06/09 00:34:38;;;;;;;5.35;3.30;;;17.60;99.90;;;;;;5112417;28;20024;-82
2023/06/09 00:37:04;;;;;;;6.25;3.60;;;17.60;99.90;;;;;;5112795;28;20028;-82
2023/06/09 00:39:30;;;;;;;7.18;3.42;;;17.50;99.90;;;;;;5112611;28;20055;-82
2023/06/09 00:41:55;;;;;;;7.45;3.70;;;17.40;99.90;;;;;;5112678;28;20055;-82
2023/06/09 00:44:21;;;;;;;5.68;4.25;;;17.40;99.90;;;;;;5115377;28;20027;-82
2023/06/09 00:46:47;;;;;;;5.63;3.60;;;17.40;99.90;;;;;;5116353;28;20032;-83
2023/06/09 00:49:13;;;;;;;6.65;3.63;;;17.50;99.90;;;;;;5117949;28;20024;-83
2023/06/09 00:51:40;;;;;;;4.32;3.33;;;17.40;99.90;;;;;;5115627;28;20035;-82
2023/06/09 00:54:05;;;;;;;7.55;3.75;;;17.40;99.90;;;;;;5117462;28;20032;-82
2023/06/09 00:56:32;;;;;;;6.22;3.55;;;17.40;99.90;;;;;;5116046;28;20028;-82
2023/06/09 00:58:58;;;;;;;6.20;3.65;;;17.40;99.90;;;;;;5116240;28;20122;-82
2023/06/09 01:01:24;;;;;;;6.57;3.53;;;17.40;99.90;;;;;;5117161;28;20062;-82
2023/06/09 01:03:50;;;;;;;7.65;4.40;;;17.40;99.90;;;;;;5115553;28;20020;-82
2023/06/09 01:06:32;;;;;;;7.28;4.10;;;17.30;99.90;;;;;;5117198;28;20103;-82
2023/06/09 01:08:59;;;;;;;;;;;17.30;99.90;;;;;;5116860;28;20019;-82
2023/06/09 01:11:36;;;;;;;5.78;3.53;;;17.40;99.90;;;;;;5116915;28;19903;-82
2023/06/09 01:14:17;;;;;;;6.18;3.95;;;17.30;99.90;;;;;;5116113;28;20080;-82
2023/06/09 01:16:57;;;;;;;4.57;3.20;;;17.30;99.90;;;;;;5115576;28;20360;-82
2023/06/09 01:19:47;;;;;;;6.47;3.95;;;17.30;99.90;;;;;;5116085;28;20039;-83
2023/06/09 01:22:57;;;;;;;5.30;3.85;;;17.30;99.90;;;;;;5108432;28;20448;-82
2023/06/09 01:25:35;;;;;;;6.50;3.53;;;17.30;99.90;;;;;;5115891;28;20465;-83
2023/06/09 01:28:11;;;;;;;6.25;3.67;;;17.30;99.90;;;;;;5116844;28;20091;-82
2023/06/09 01:30:40;;;;;;;5.78;3.42;;;17.30;99.90;;;;;;5115308;28;20027;-82
2023/06/09 01:33:09;;;;;;;7.55;3.90;;;17.20;99.90;;;;;;5115655;28;20418;-83
2023/06/09 01:35:35;;;;;;;6.32;3.42;;;17.20;99.90;;;;;;5115417;28;20114;-82
2023/06/09 01:38:01;;;;;;;5.75;3.70;;;17.20;99.90;;;;;;5116685;28;20018;-83
2023/06/09 01:40:29;;;;;;;6.18;3.53;;;17.20;99.90;;;;;;5115906;28;20051;-82
2023/06/09 01:43:00;;;;;;;5.65;3.40;;;17.20;99.90;;;;;;5116673;28;20084;-82
2023/06/09 01:45:26;;;;;;;6.65;3.58;;;17.20;99.90;;;;;;5117500;28;20491;-83
2023/06/09 01:47:53;;;;;;;9.07;3.80;;;17.00;99.90;;;;;;5115826;28;20027;-82
2023/06/09 01:50:33;;;;;;;6.88;3.80;;;16.90;99.90;;;;;;5115662;28;20027;-83
2023/06/09 01:53:06;;;;;;;4.72;3.80;;;16.90;99.90;;;;;;5119062;28;20034;-83
2023/06/09 01:55:38;;;;;;;7.20;4.30;;;16.80;99.90;;;;;;5117265;28;20046;-83
2023/06/09 01:58:09;;;;;;;7.32;3.97;;;16.80;99.90;;;;;;5116528;28;20036;-84
2023/06/09 02:00:36;;;;;;;7.60;4.07;;;16.70;99.90;;;;;;5115517;28;20474;-82
2023/06/09 02:03:05;;;;;;;9.63;3.45;;;16.70;99.90;;;;;;5114890;28;20081;-83
2023/06/09 02:05:32;;;;;;;4.88;3.28;;;16.70;99.90;;;;;;5115497;28;20427;-82
2023/06/09 02:08:00;;;;;;;5.70;3.17;;;16.70;99.90;;;;;;5116318;28;20032;-83
2023/06/09 02:10:26;;;;;;;6.03;3.83;;;16.80;99.90;;;;;;5115219;28;20020;-83
2023/06/09 02:12:52;;;;;;;4.18;3.33;;;16.80;99.90;;;;;;5114869;28;20357;-83
2023/06/09 02:15:19;;;;;;;5.55;3.65;;;16.80;99.90;;;;;;5121846;28;20062;-83
2023/06/09 02:17:45;;;;;;;5.82;3.72;;;16.80;99.90;;;;;;5123124;28;20038;-84
2023/06/09 02:20:11;;;;;;;9.30;4.22;;;16.80;99.90;;;;;;5116028;28;20034;-83
2023/06/09 02:22:37;;;;;;;5.10;3.70;;;16.80;99.90;;;;;;5114946;28;20028;-83
2023/06/09 02:25:04;;;;;;;7.28;4.05;;;16.80;99.90;;;;;;5115792;28;20488;-84
2023/06/09 02:27:30;;;;;;;5.47;4.18;;;16.80;99.90;;;;;;5115742;28;20020;-84
2023/06/09 02:29:56;;;;;;;6.30;4.13;;;16.80;99.90;;;;;;5115372;28;20020;-83
2023/06/09 02:32:22;;;;;;;5.90;3.80;;;16.80;99.90;;;;;;5126428;28;20072;-84
2023/06/09 02:34:48;;;;;;;5.90;3.80;;;16.70;99.90;;;;;;5125012;28;20024;-83
2023/06/09 02:37:13;;;;;;;6.07;4.30;;;16.60;99.90;;;;;;5119494;28;20034;-84
2023/06/09 02:39:39;;;;;;;4.97;4.05;;;16.60;99.90;;;;;;5113979;28;20023;-83
2023/06/09 02:42:05;;;;;;;8.13;4.03;;;16.60;99.90;;;;;;5114179;28;20193;-84
2023/06/09 02:44:37;;;;;;;9.27;4.32;;;16.50;99.90;;;;;;5115347;28;20020;-83
2023/06/09 02:47:04;;;;;;;6.40;4.40;;;16.60;99.90;;;;;;5115527;28;20027;-83
2023/06/09 02:49:29;;;;;;;7.10;4.45;;;16.60;99.90;;;;;;5115112;28;20027;-83
2023/06/09 02:51:55;;;;;;;5.05;4.00;;;16.50;99.90;;;;;;5113915;28;20085;-83
2023/06/09 02:54:21;;;;;;;6.35;3.80;;;16.50;99.90;;;;;;5113929;28;20027;-83
2023/06/09 02:56:46;;;;;;;7.30;4.70;;;16.50;99.90;;;;;;5114530;28;20028;-83
2023/06/09 02:59:12;;;;;;;6.68;4.45;;;16.50;99.90;;;;;;5114218;28;20027;-83
2023/06/09 03:01:38;;;;;;;6.18;4.30;;;16.50;99.90;;;;;;5113655;28;20062;-83
2023/06/09 03:04:06;;;;;;;6.45;4.15;;;16.50;99.90;;;;;;5114205;28;20039;-83
2023/06/09 03:06:33;;;;;;;6.40;3.83;;;16.50;99.90;;;;;;5114244;28;20416;-83
2023/06/09 03:09:00;;;;;;;5.28;3.78;;;16.40;99.90;;;;;;5115957;28;20030;-83
2023/06/09 03:11:26;;;;;;;6.25;4.30;;;16.50;99.90;;;;;;5114592;28;20031;-83
2023/06/09 03:13:52;;;;;;;5.47;4.10;;;16.40;99.90;;;;;;5115544;28;20027;-83
2023/06/09 03:16:17;;;;;;;7.93;4.65;;;16.50;99.90;;;;;;5114952;28;20119;-85
2023/06/09 03:18:43;;;;;;;5.53;4.07;;;16.40;99.90;;;;;;5115627;28;20031;-83
2023/06/09 03:21:10;;;;;;;7.05;4.68;;;16.40;99.90;;;;;;5114959;28;20077;-82
2023/06/09 03:23:35;;;;;;;6.57;4.35;;;16.40;99.90;;;;;;5114685;28;20042;-83
2023/06/09 03:26:01;;;;;;;6.95;4.15;;;16.40;99.90;;;;;;5114092;28;20122;-83
2023/06/09 03:28:26;;;;;;;6.57;4.28;;;16.40;99.90;;;;;;5113703;28;20053;-83
2023/06/09 03:30:54;;;;;;;6.57;4.60;;;16.40;99.90;;;;;;5114257;28;20510;-83
2023/06/09 03:33:20;;;;;;;6.50;4.60;;;16.30;99.90;;;;;;5113939;28;20038;-83
2023/06/09 03:35:48;;;;;;;5.80;4.47;;;16.30;99.90;;;;;;5113116;28;20028;-83
2023/06/09 03:38:13;;;;;;;10.25;4.47;;;16.20;99.90;;;;;;5114473;28;20019;-83
2023/06/09 03:40:39;;;;;;;7.43;5.15;;;16.20;99.90;;;;;;5112999;28;20404;-83
2023/06/09 03:43:04;;;;;;;8.45;5.03;;;16.20;99.90;;;;;;5113533;28;20059;-83
2023/06/09 03:45:30;;;;;;;7.35;5.22;;;16.20;99.90;;;;;;5113556;28;20077;-83
2023/06/09 03:47:56;;;;;;;7.82;5.30;;;16.10;99.90;;;;;;5112951;28;20099;-83
2023/06/09 03:50:22;;;;;;;6.60;4.72;;;16.10;99.90;;;;;;5113568;28;20020;-83
2023/06/09 03:52:48;;;;;;;10.48;5.50;;;15.90;99.90;;;;;;5112956;28;20030;-82
2023/06/09 03:55:13;;;;;;;7.63;5.20;;;15.90;99.90;;;;;;5113527;28;20038;-83
2023/06/09 03:57:39;;;;;;;7.13;4.32;;;15.90;99.90;;;;;;5112937;28;20024;-83
2023/06/09 04:00:06;;;;;;;6.05;5.07;;;16.00;99.90;;;;;;5113360;28;20027;-83
2023/06/09 04:02:32;;;;;;;10.35;5.10;;;16.00;99.90;;;;;;5113229;28;20031;-82
2023/06/09 04:04:58;;;;;;;8.25;4.88;;;15.90;99.90;;;;;;5113847;28;20020;-82
2023/06/09 04:07:24;;;;;;;8.73;5.15;;;16.00;99.90;;;;;;5112790;28;20040;-83
2023/06/09 04:09:50;;;;;;;7.30;4.85;;;16.00;99.90;;;;;;5113712;28;20078;-82
2023/06/09 04:12:15;;;;;;;9.98;5.10;;;15.90;99.90;;;;;;5113141;28;20024;-83
2023/06/09 04:14:41;;;;;;;7.63;5.45;;;15.90;99.90;;;;;;5113873;28;20020;-82
2023/06/09 04:17:06;;;;;;;9.05;5.25;;;15.90;99.90;;;;;;5113419;28;20447;-83
2023/06/09 04:19:32;;;;;;;8.88;5.13;;;16.00;99.90;;;;;;5118384;28;20028;-83
2023/06/09 04:22:04;;;;;;;7.95;5.47;;;16.00;99.90;;;;;;5117637;28;20076;-83
2023/06/09 04:24:30;;;;;;;7.88;5.55;;;16.00;99.90;;;;;;5119660;28;20053;-83
2023/06/09 04:26:57;;;;;;;8.38;4.97;;;16.00;99.90;;;;;;5118732;28;20469;-83
2023/06/09 04:29:23;;;;;;;9.88;5.55;;;16.00;99.90;;;;;;5119683;28;20023;-82
2023/06/09 04:31:53;;;;;;;11.02;5.63;;;16.00;99.90;;;;;;5119408;28;20457;-84
2023/06/09 04:34:19;;;;;;;9.77;5.80;;;16.00;99.90;;;;;;5119591;28;20024;-84
2023/06/09 04:36:47;;;;;;;8.82;5.60;;;16.00;99.90;;;;;;5120455;28;20038;-84
2023/06/09 04:39:12;;;;;;;7.22;5.10;;;16.00;99.90;;;;;;5118795;28;20073;-83
2023/06/09 04:41:38;;;;;;;7.97;6.13;;;16.00;99.90;;;;;;5117930;28;20039;-84
2023/06/09 04:44:05;;;;;;;7.15;5.25;;;16.00;99.90;;;;;;5118143;28;20027;-83
2023/06/09 04:46:37;;;;;;;9.25;5.50;;;16.00;99.90;;;;;;5118917;28;20039;-82
2023/06/09 04:49:08;;;;;;;7.93;5.75;;;16.10;99.90;;;;;;5115940;28;20027;-82
2023/06/09 04:51:46;;;;;;;9.07;5.25;;;16.10;99.90;;;;;;5117215;28;20036;-83
2023/06/09 04:54:16;;;;;;;10.07;5.32;;;16.10;99.90;;;;;;5116311;28;20031;-84
2023/06/09 04:56:43;;;;;;;10.38;6.15;;;16.20;99.90;;;;;;5115994;28;20031;-81
2023/06/09 04:59:13;;;;;;;8.73;5.30;;;16.20;99.90;;;;;;5116548;28;20482;-82
2023/06/09 05:01:40;;;;;;;8.50;5.55;;;16.20;99.90;;;;;;5116563;28;20027;-82
2023/06/09 05:04:08;;;;;;;8.98;5.45;;;16.30;99.90;;;;;;5116502;28;20024;-82
2023/06/09 05:06:36;;;;;;;8.02;5.68;;;16.40;99.90;;;;;;5116842;28;20042;-82
2023/06/09 05:09:02;;;;;;;9.68;5.70;;;16.40;99.90;;;;;;5109353;27;20019;-82
2023/06/09 05:11:28;;;;;;;8.25;5.80;;;16.40;99.90;;;;;;5127336;27;20034;-80
2023/06/09 05:13:54;;;;;;;8.55;5.93;;;16.50;99.90;;;;;;5119755;27;20024;-82
2023/06/09 05:16:21;;;;;;;7.82;5.68;;;16.50;99.90;;;;;;5116802;27;20250;-81
2023/06/09 05:18:47;;;;;;;10.27;5.90;;;16.50;99.90;;;;;;5133899;27;20031;-80
2023/06/09 05:21:12;;;;;;;8.95;5.78;;;16.60;99.90;;;;;;5128382;27;20020;-81
2023/06/09 05:23:38;;;;;;;12.18;5.82;;;16.60;99.90;;;;;;5129373;27;20038;-82
2023/06/09 05:26:03;;;;;;;9.40;5.60;;;16.70;99.90;;;;;;5130039;27;20095;-81
2023/06/09 05:28:29;;;;;;;8.20;5.78;;;16.70;99.90;;;;;;5126412;27;20387;-81
2023/06/09 05:30:55;;;;;;;8.43;5.55;;;16.70;99.90;;;;;;5130847;27;20030;-83
2023/06/09 05:33:22;;;;;;;9.02;5.50;;;16.70;99.90;;;;;;5127362;27;20489;-82
2023/06/09 05:35:47;;;;;;;9.55;5.93;;;16.80;99.90;;;;;;5126170;27;20030;-82
2023/06/09 05:38:13;;;;;;;10.18;6.13;;;16.80;99.90;;;;;;5125207;27;20091;-82
2023/06/09 05:40:38;;;;;;;10.80;6.05;;;16.80;99.90;;;;;;5134828;27;20122;-84
2023/06/09 05:43:04;;;;;;;8.77;6.28;;;16.90;99.90;;;;;;5124525;27;20134;-83
2023/06/09 05:45:30;;;;;;;8.05;5.85;;;16.90;99.90;;;;;;5126050;27;20047;-83
2023/06/09 05:47:56;;;;;;;8.23;5.78;;;17.00;99.90;;;;;;5130477;27;20049;-84
2023/06/09 05:50:21;;;;;;;8.43;5.30;;;17.00;99.90;;;;;;5120770;27;20023;-84
2023/06/09 05:52:47;;;;;;;9.63;6.13;;;17.10;99.90;;;;;;5129711;27;20051;-83
2023/06/09 05:55:13;;;;;;;6.70;5.55;;;17.10;99.90;;;;;;5125687;27;20483;-83
2023/06/09 05:57:40;;;;;;;9.52;6.80;;;17.10;99.90;;;;;;5122115;27;20035;-83
2023/06/09 06:00:07;;;;;;;7.75;5.30;;;17.20;99.90;;;;;;5130859;27;20479;-82
2023/06/09 06:02:33;;;;;;;7.07;5.43;;;17.20;99.90;;;;;;5114674;28;20038;-83
2023/06/09 06:04:58;;;;;;;8.25;5.97;;;17.20;99.90;;;;;;5114713;28;20108;-84
2023/06/09 06:07:24;;;;;;;9.73;5.70;;;17.30;99.90;;;;;;5119666;27;20032;-83
2023/06/09 06:09:50;;;;;;;9.40;6.20;;;17.30;99.90;;;;;;5129559;27;20034;-82
2023/06/09 06:12:15;;;;;;;7.88;5.45;;;17.30;99.90;;;;;;5117606;27;20034;-84
2023/06/09 06:14:41;;;;;;;8.73;5.93;;;17.40;99.90;;;;;;5129487;27;20114;-83
2023/06/09 06:17:06;;;;;;;8.57;5.63;;;17.40;99.90;;;;;;5121687;27;20046;-83
2023/06/09 06:19:32;;;;;;;8.23;5.53;;;17.50;99.90;;;;;;5123063;27;20019;-84
2023/06/09 06:21:58;;;;;;;8.13;5.82;;;17.50;99.90;;;;;;5129354;27;20114;-84
2023/06/09 06:24:23;;;;;;;8.75;5.50;;;17.60;99.90;;;;;;5117665;27;20512;-84
2023/06/09 06:26:49;;;;;;;10.07;5.97;;;17.70;99.90;;;;;;5127763;27;20024;-83
2023/06/09 06:29:15;;;;;;;7.95;5.72;;;17.70;99.90;;;;;;5124018;27;20052;-83
2023/06/09 06:31:40;;;;;;;10.98;6.50;;;17.70;99.90;;;;;;5121300;27;20476;-84
2023/06/09 06:34:06;;;;;;;8.18;5.80;;;17.80;99.90;;;;;;5114572;28;20149;-83
2023/06/09 06:36:31;;;;;;;10.65;6.10;;;17.90;99.90;;;;;;5131757;27;20024;-85
2023/06/09 06:38:57;;;;;;;8.35;5.57;;;17.90;99.90;;;;;;5114297;28;20027;-83
2023/06/09 06:41:22;;;;;;;7.22;5.20;;;17.90;99.90;;;;;;5124255;27;20087;-84
2023/06/09 06:43:49;;;;;;;6.47;5.20;;;18.00;99.90;;;;;;5119547;27;20027;-83
2023/06/09 06:46:17;;;;;;;8.75;5.30;;;18.10;99.90;;;;;;5130336;27;20031;-84
2023/06/09 06:48:43;;;;;;;11.77;6.43;;;18.10;99.90;;;;;;5119939;27;20023;-84
2023/06/09 06:51:08;;;;;;;7.45;5.43;;;18.20;99.90;;;;;;5133413;27;20038;-83
2023/06/09 06:53:36;;;;;;;8.02;5.38;;;18.20;99.90;;;;;;5135383;27;20035;-84
2023/06/09 06:56:02;;;;;;;7.28;5.25;;;18.30;99.90;;;;;;5116181;27;20028;-83
2023/06/09 06:58:28;;;;;;;10.00;5.75;;;18.30;99.90;;;;;;5129630;27;20492;-84
2023/06/09 07:00:56;;;;;;;6.97;5.15;;;18.30;99.90;;;;;;5120466;27;20015;-83
2023/06/09 07:03:26;;;;;;;8.77;5.25;;;18.40;99.90;;;;;;5133317;27;20062;-83
2023/06/09 07:05:51;;;;;;;8.25;5.53;;;18.40;99.90;;;;;;5118765;27;20540;-83
2023/06/09 07:08:17;;;;;;;8.88;5.75;;;18.40;99.90;;;;;;5113653;27;20027;-83
2023/06/09 07:10:43;;;;;;;8.90;5.07;;;18.50;99.90;;;;;;5128253;27;20038;-83
2023/06/09 07:13:09;;;;;;;7.15;5.15;;;18.50;99.90;;;;;;5121095;27;20501;-82
2023/06/09 07:15:36;;;;;;;7.63;5.28;;;18.60;99.90;;;;;;5133824;27;20455;-82
2023/06/09 07:18:03;;;;;;;8.27;5.38;;;18.60;99.90;;;;;;5116386;27;20072;-81
2023/06/09 07:20:28;;;;;;;9.05;5.70;;;18.70;99.90;;;;;;5130311;27;20024;-81
2023/06/09 07:22:54;;;;;;;6.78;4.88;;;18.80;99.90;;;;;;5113692;28;20039;-81
2023/06/09 07:25:20;;;;;;;9.23;5.30;;;18.80;99.90;;;;;;5123326;27;20026;-81
2023/06/09 07:27:46;;;;;;;6.20;4.78;;;18.80;99.90;;;;;;5134255;27;20031;-79
2023/06/09 07:30:12;;;;;;;6.93;5.00;;;19.00;99.90;;;;;;5117266;27;20491;-83
2023/06/09 07:32:39;;;;;;;8.15;5.28;;;19.00;99.90;;;;;;5130054;27;20054;-83
2023/06/09 07:35:05;;;;;;;6.50;4.53;;;19.00;99.90;;;;;;5120885;27;20471;-81
2023/06/09 07:37:31;;;;;;;7.53;5.22;;;19.10;99.90;;;;;;5121772;27;20032;-82
2023/06/09 07:39:57;;;;;;;8.00;4.93;;;19.20;99.90;;;;;;5127927;28;20027;-81
2023/06/09 07:42:22;;;;;;;5.82;4.82;;;19.20;99.90;;;;;;5116043;28;20043;-81
2023/06/09 07:44:48;;;;;;;7.20;4.60;;;19.20;99.90;;;;;;5121141;28;20027;-82
2023/06/09 07:47:14;;;;;;;6.45;4.50;;;19.30;99.90;;;;;;5124016;28;20040;-83
2023/06/09 07:49:40;;;;;;;6.97;4.57;;;19.30;99.90;;;;;;5127563;28;20027;-83
2023/06/09 07:52:06;;;;;;;7.20;4.93;;;19.40;99.90;;;;;;5115360;28;20036;-82
2023/06/09 07:54:31;;;;;;;6.10;4.60;;;19.40;99.90;;;;;;5132583;27;20114;-83
2023/06/09 07:56:57;;;;;;;6.35;4.70;;;19.40;99.90;;;;;;5117338;28;20112;-83
2023/06/09 07:59:23;;;;;;;6.53;4.75;;;19.50;99.90;;;;;;5129065;27;20491;-84
2023/06/09 08:01:48;;;;;;;8.00;4.65;;;19.60;99.90;;;;;;5122332;27;20165;-82
2023/06/09 08:04:14;;;;;;;7.15;4.70;;;19.60;99.90;;;;;;5118220;27;20028;-82
2023/06/09 08:06:39;;;;;;;5.40;4.50;;;19.70;99.90;;;;;;5137795;27;20118;-82
2023/06/09 08:09:05;;;;;;;5.70;4.30;;;19.80;99.90;;;;;;5115657;27;20020;-82
2023/06/09 08:11:31;;;;;;;6.75;4.55;;;19.90;99.90;;;;;;5125221;27;20034;-82
2023/06/09 08:13:57;;;;;;;5.80;4.20;;;19.90;99.90;;;;;;5116615;28;20476;-81
2023/06/09 08:16:23;;;;;;;6.30;4.70;;;20.00;99.90;;;;;;5120048;27;20027;-82
2023/06/09 08:18:49;;;;;;;5.43;4.15;;;20.00;99.90;;;;;;5131131;27;20027;-80
2023/06/09 08:21:14;;;;;;;5.13;4.30;;;20.10;99.90;;;;;;5126252;27;20126;-82
2023/06/09 08:23:44;;;;;;;7.35;4.25;;;20.10;99.90;;;;;;5123419;27;20028;-82
2023/06/09 08:26:10;;;;;;;5.93;4.03;;;20.20;99.90;;;;;;5132391;27;20035;-82
2023/06/09 08:28:36;;;;;;;6.38;4.45;;;20.30;99.90;;;;;;5122053;27;20055;-82
2023/06/09 08:31:03;;;;;;;4.88;4.03;;;20.30;99.90;;;;;;5123965;27;20035;-82
2023/06/09 08:33:33;;;;;;;5.70;4.15;;;20.40;99.90;;;;;;5128921;27;20026;-82
2023/06/09 08:35:59;;;;;;;8.75;4.53;;;20.40;99.90;;;;;;5121189;27;20027;-82
2023/06/09 08:38:25;;;;;;;6.50;4.13;;;20.50;99.90;;;;;;5113811;27;20699;-82
2023/06/09 08:40:53;;;;;;;5.15;3.83;;;20.60;99.90;;;;;;5129057;27;20039;-81
2023/06/09 08:43:19;;;;;;;6.55;4.18;;;20.70;99.90;;;;;;5125544;27;20016;-82
2023/06/09 08:45:48;;;;;;;9.32;4.28;;;20.80;99.90;;;;;;5123613;27;20036;-82
2023/06/09 08:48:18;;;;;;;5.20;3.80;;;20.80;99.90;;;;;;5133966;27;20111;-82
2023/06/09 08:50:45;;;;;;;5.55;3.90;;;20.80;99.90;;;;;;5122297;27;20491;-81
2023/06/09 08:53:11;;;;;;;6.60;4.35;;;20.80;99.90;;;;;;5127110;27;20388;-81
2023/06/09 08:55:38;;;;;;;4.95;4.25;;;20.90;99.90;;;;;;5130262;27;20039;-82
2023/06/09 08:58:04;;;;;;;4.72;4.00;;;21.00;99.90;;;;;;5120605;27;20028;-81
2023/06/09 09:00:30;;;;;;;5.20;4.00;;;21.00;99.90;;;;;;5132076;27;20046;-81
2023/06/09 09:02:56;;;;;;;6.10;4.53;;;21.10;99.90;;;;;;5114811;28;20456;-82
2023/06/09 09:05:22;;;;;;;6.60;4.10;;;21.10;99.90;;;;;;5125629;27;20023;-81
2023/06/09 09:07:47;;;;;;;5.15;4.15;;;21.00;99.90;;;;;;5121953;27;20028;-82
2023/06/09 09:10:14;;;;;;;6.38;4.35;;;21.10;99.90;;;;;;5132839;27;20027;-82
2023/06/09 09:12:56;;;;;;;5.70;3.85;;;21.20;99.90;;;;;;5120719;27;20098;-82
2023/06/09 09:15:24;;;;;;;5.72;3.63;;;21.20;99.90;;;;;;5125380;27;20039;-82
2023/06/09 09:17:50;;;;;;;6.18;3.70;;;21.30;99.90;;;;;;5129385;27;20057;-80
2023/06/09 09:20:16;;;;;;;5.28;3.47;;;21.30;99.90;;;;;;5119977;27;20035;-82
2023/06/09 09:22:46;;;;;;;4.00;3.10;;;21.40;99.90;;;;;;5130594;27;20103;-82
2023/06/09 09:25:26;;;;;;;4.97;3.60;;;21.40;99.90;;;;;;5124343;27;20034;-82
2023/06/09 09:28:06;;;;;;;5.13;3.60;;;21.50;99.90;;;;;;5120216;27;20065;-81
2023/06/09 09:30:55;;;;;;;3.97;3.42;;;21.60;99.90;;;;;;5101779;27;20015;-82
2023/06/09 09:33:26;;;;;;;4.55;3.70;;;21.70;99.90;;;;;;5125218;27;20145;-82
2023/06/09 09:35:54;;;;;;;5.38;3.38;;;21.70;99.90;;;;;;5114724;28;20529;-82
2023/06/09 09:38:26;;;;;;;4.88;3.33;;;21.80;99.90;;;;;;5122635;27;20106;-82
2023/06/09 09:40:54;;;;;;;3.90;2.95;;;21.90;99.90;;;;;;5129326;27;20153;-81
2023/06/09 09:43:21;;;;;;;4.43;3.03;;;21.90;99.90;;;;;;5125268;27;20080;-82
2023/06/09 09:45:49;;;;;;;5.22;3.83;;;21.90;99.90;;;;;;5120947;27;20384;-81
2023/06/09 09:48:19;;;;;;;5.45;3.00;;;22.00;99.90;;;;;;5131640;27;20445;-82
2023/06/09 09:50:46;;;;;;;4.65;2.65;;;22.10;99.90;;;;;;5120976;27;20023;-82
2023/06/09 09:53:12;;;;;;;3.90;2.80;;;22.20;99.90;;;;;;5125323;27;20035;-82
2023/06/09 09:55:42;;;;;;;4.45;2.90;;;22.30;99.90;;;;;;5128488;27;20031;-81
2023/06/09 09:58:08;;;;;;;4.22;3.30;;;22.30;99.90;;;;;;5117560;27;20027;-81
2023/06/09 10:00:36;;;;;;;5.40;3.75;;;22.40;99.90;;;;;;5131745;27;20537;-82
2023/06/09 10:03:17;;;;;;;5.07;3.88;;;22.40;99.90;;;;;;5114861;28;20086;-81
2023/06/09 10:05:47;;;;;;;4.63;3.55;;;22.40;99.90;;;;;;5129249;27;20031;-81
2023/06/09 10:08:32;;;;;;;7.43;3.40;;;22.40;99.90;;;;;;5117330;27;20024;-81
2023/06/09 10:11:00;;;;;;;4.07;3.15;;;22.50;99.90;;;;;;5120985;27;20047;-81
2023/06/09 10:13:27;;;;;;;4.50;3.33;;;22.60;99.90;;;;;;5123831;27;20020;-82
2023/06/09 10:15:59;;;;;;;4.88;3.42;;;22.70;99.90;;;;;;5128517;27;20027;-82
2023/06/09 10:18:25;;;;;;;5.15;3.50;;;22.70;99.90;;;;;;5117097;27;20066;-81
2023/06/09 10:20:52;;;;;;;6.22;3.22;;;22.80;99.90;;;;;;5127104;27;20028;-81
2023/06/09 10:23:18;;;;;;;4.30;3.13;;;22.80;99.90;;;;;;5114650;27;20055;-81
2023/06/09 10:25:51;;;;;;;3.85;3.10;;;22.90;99.90;;;;;;5127609;27;20039;-82
2023/06/09 10:28:18;;;;;;;4.20;3.08;;;23.00;99.90;;;;;;5117347;27;20110;-82
2023/06/09 10:30:45;;;;;;;3.58;2.95;;;23.00;99.70;;;;;;5129868;27;20024;-82
2023/06/09 10:33:26;;;;;;;9.02;3.53;;;23.00;99.90;;;;;;5122651;27;20112;-81
2023/06/09 10:35:59;;;;;;;3.60;3.00;;;23.00;99.30;;;;;;5118664;27;20526;-81
2023/06/09 10:38:30;;;;;;;3.08;2.70;;;23.10;99.20;;;;;;5110525;27;20472;-81
2023/06/09 10:41:02;;;;;;;5.75;3.42;;;23.20;99.50;;;;;;5126053;27;20067;-82
2023/06/09 10:43:37;;;;;;;5.63;3.22;;;23.30;99.10;;;;;;5125999;27;20068;-82
2023/06/09 10:46:03;;;;;;;5.13;3.40;;;23.40;98.60;;;;;;5117398;27;20035;-82
2023/06/09 10:48:50;;;;;;;4.53;3.20;;;23.40;99.30;;;;;;5131764;27;20360;-82
2023/06/09 10:51:31;;;;;;;5.93;3.10;;;23.50;99.30;;;;;;5123021;27;20110;-82
2023/06/09 10:54:12;;;;;;;4.43;3.40;;;23.60;98.70;;;;;;5118926;27;20468;-83
2023/06/09 10:56:45;;;;;;;4.37;3.13;;;23.60;98.20;;;;;;5101787;27;20079;-82
2023/06/09 10:59:23;;;;;;;4.47;3.35;;;23.60;97.90;;;;;;5123762;27;20024;-82
2023/06/09 11:02:04;;;;;;;3.60;3.25;;;23.70;97.90;;;;;;5113850;28;20019;-82
2023/06/09 11:04:43;;;;;;;5.05;3.80;;;23.80;98.50;;;;;;5130346;27;20031;-83
2023/06/09 11:07:13;;;;;;;5.40;3.40;;;23.80;97.20;;;;;;5115029;27;20052;-82
2023/06/09 11:09:51;;;;;;;4.10;3.40;;;23.90;96.60;;;;;;5110742;27;20076;-82
2023/06/09 11:12:29;;;;;;;7.63;3.17;;;23.90;97.40;;;;;;5112900;28;20020;-82
2023/06/09 11:14:58;;;;;;;3.97;3.10;;;24.00;97.90;;;;;;5120575;27;20460;-81
2023/06/09 11:17:30;;;;;;;5.03;3.25;;;24.10;97.00;;;;;;5133826;27;20522;-82
2023/06/09 11:22:33;;;;;;;6.13;3.97;;;24.20;96.60;;;;;;5114055;27;20511;-82
2023/06/09 11:24:59;;;;;;;4.47;3.15;;;24.30;97.00;;;;;;5124873;27;20070;-82
2023/06/09 11:27:25;;;;;;;3.33;2.80;;;24.30;97.60;;;;;;5125074;27;20540;-83
2023/06/09 11:30:07;;;;;;;4.50;2.88;;;24.40;97.10;;;;;;5118704;27;20031;-82
2023/06/09 11:32:47;;;;;;;12.43;3.38;;;24.50;96.60;;;;;;5100520;28;20019;-83
2023/06/09 11:35:25;;;;;;;3.40;2.88;;;24.50;96.30;;;;;;5124025;27;20027;-82
2023/06/09 11:37:52;;;;;;;3.75;2.95;;;24.50;96.00;;;;;;5117784;27;20024;-79
2023/06/09 11:40:18;;;;;;;4.18;3.15;;;24.70;96.00;;;;;;5129406;27;20110;-82
2023/06/09 11:42:45;;;;;;;4.35;3.60;;;24.70;96.10;;;;;;5118314;28;20379;-83
2023/06/09 11:45:11;;;;;;;11.13;3.20;;;25.00;96.20;;;;;;5122888;28;20484;-81
2023/06/09 11:47:40;;;;;;;4.03;3.35;;;25.00;95.20;;;;;;5126677;28;20031;-83
2023/06/09 11:50:11;;;;;;;5.50;3.63;;;25.10;95.80;;;;;;5132275;28;20030;-82
2023/06/09 11:52:37;;;;;;;5.50;3.33;;;25.10;95.10;;;;;;5116984;28;20030;-82
2023/06/09 11:55:05;;;;;;;5.88;3.17;;;25.10;94.60;;;;;;5118134;28;20106;-82
2023/06/09 11:57:32;;;;;;;4.47;3.13;;;25.20;94.20;;;;;;5113179;28;20081;-83
2023/06/09 11:59:58;;;;;;;4.55;3.30;;;25.20;94.80;;;;;;5128631;28;20034;-81
2023/06/09 12:02:27;;;;;;;4.95;3.17;;;25.30;94.60;;;;;;5113076;28;20504;-82
2023/06/09 12:04:53;;;;;;;4.10;3.10;;;25.50;94.30;;;;;;5114034;28;20024;-82
2023/06/09 12:07:19;;;;;;;6.30;2.80;;;25.60;94.40;;;;;;5112605;28;20035;-82
2023/06/09 12:09:53;;;;;;;4.55;3.30;;;25.70;93.70;;;;;;5120204;28;20110;-82
2023/06/09 12:12:18;;;;;;;5.25;2.83;;;25.70;92.30;;;;;;5115963;28;20042;-82
2023/06/09 12:14:44;;;;;;;3.97;2.90;;;25.70;92.10;;;;;;5128664;28;20373;-82
2023/06/09 12:17:10;;;;;;;6.20;3.20;;;25.80;92.60;;;;;;5123125;28;20031;-83
2023/06/09 12:19:35;;;;;;;7.20;3.20;;;25.90;92.10;;;;;;5121262;28;20441;-83
2023/06/09 12:22:03;;;;;;;3.67;3.00;;;26.10;92.30;;;;;;5127797;28;20064;-83
2023/06/09 12:24:30;;;;;;;3.30;3.00;;;26.30;91.70;;;;;;5116976;28;20031;-83
2023/06/09 12:26:56;;;;;;;4.10;2.70;;;26.50;91.30;;;;;;5131737;28;20411;-83
2023/06/09 12:29:26;;;;;;;3.85;2.67;;;26.50;90.90;;;;;;5132985;28;20027;-83
2023/06/09 12:31:52;;;;;;;3.13;2.83;;;26.50;89.80;;;;;;5117216;28;20030;-83
2023/06/09 12:34:26;;;;;;;3.75;2.67;;;26.70;90.40;;;;;;5129466;28;20020;-83
2023/06/09 12:36:53;;;;;;;4.53;2.80;;;26.80;88.20;;;;;;5115062;28;20023;-82
2023/06/09 12:39:20;;;;;;;5.10;2.75;;;26.90;88.70;;;;;;5111478;27;20126;-82
2023/06/09 12:41:46;;;;;;;4.85;3.13;;;27.00;87.90;;;;;;5131378;27;20046;-82
2023/06/09 12:44:25;;;;;;;3.75;2.45;;;27.10;87.90;;;;;;5118584;27;20032;-83
2023/06/09 12:46:57;;;;;;;3.35;2.40;;;27.20;85.70;;;;;;5130998;27;20028;-83
2023/06/09 12:49:32;;;;;;;2.42;2.22;;;27.40;85.60;;;;;;5126722;27;20028;-83
2023/06/09 12:51:59;;;;;;;4.18;2.60;;;27.50;85.90;;;;;;5120734;27;20028;-82